KBYH/BYH METAR and TAF weather

Enter ICAO airport designator
Station Type Date Time Source
KBYH METAR 2022/11/03 17:52 UTC NOAA

KBYH 031752Z 18008KT 10SM SKC 24/12 A3018


Station Type Date Time Source
KBYH Decoded METAR 2022/11/03 17:52 UTC NOAA

Eaker Air Force Base, AR, United States (KBYH) 35-58N 089-57W
Nov 03, 2022 - 01:52 PM EDT / 2022.11.03 1752 UTC
Wind: from the S (180 degrees) at 9 MPH (8 KT):0
Visibility: 10 mile(s):0
Sky conditions: clear
Temperature: 75 F (24 C)
Dew Point: 53 F (12 C)
Relative Humidity: 46%
Pressure (altimeter): 30.18 in. Hg (1022 hPa)
ob: KBYH 031752Z 18008KT 10SM SKC 24/12 A3018
cycle: 18

Station Type Date Time Source
KBYH TAF UTC NOAA

Error!

Example: see airport list